sensor_id;sensor_type;location;lat;lon;timestamp;temperature;humidity
60868;DHT22;46702;48.370;10.794;2023-02-15T00:01:37;-0.90;99.90
60868;DHT22;46702;48.370;10.794;2023-02-15T00:04:04;-0.90;99.90
60868;DHT22;46702;48.370;10.794;2023-02-15T00:06:30;-0.80;99.90
60868;DHT22;46702;48.370;10.794;2023-02-15T00:08:56;-0.80;99.90
60868;DHT22;46702;48.370;10.794;2023-02-15T00:11:22;-0.80;99.90
60868;DHT22;46702;48.370;10.794;2023-02-15T00:16:36;-0.90;99.90
60868;DHT22;46702;48.370;10.794;2023-02-15T00:19:03;-0.90;99.90
60868;DHT22;46702;48.370;10.794;2023-02-15T00:21:30;-0.90;99.90
60868;DHT22;46702;48.370;10.794;2023-02-15T00:23:57;-0.90;99.90
60868;DHT22;46702;48.370;10.794;2023-02-15T00:26:23;-0.90;99.90
60868;DHT22;46702;48.370;10.794;2023-02-15T00:28:49;-0.90;99.90
60868;DHT22;46702;48.370;10.794;2023-02-15T00:31:14;-0.90;99.90
60868;DHT22;46702;48.370;10.794;2023-02-15T00:33:40;-0.90;99.90
60868;DHT22;46702;48.370;10.794;2023-02-15T00:36:07;-0.90;99.90
60868;DHT22;46702;48.370;10.794;2023-02-15T00:38:34;-0.90;99.90
60868;DHT22;46702;48.370;10.794;2023-02-15T00:41:02;-0.70;99.90
60868;DHT22;46702;48.370;10.794;2023-02-15T00:43:30;-0.70;99.90
60868;DHT22;46702;48.370;10.794;2023-02-15T00:45:56;-0.60;99.90
60868;DHT22;46702;48.370;10.794;2023-02-15T00:48:21;-0.60;99.90
60868;DHT22;46702;48.370;10.794;2023-02-15T00:50:53;-0.50;99.90
60868;DHT22;46702;48.370;10.794;2023-02-15T00:53:19;-0.40;99.90
60868;DHT22;46702;48.370;10.794;2023-02-15T00:55:45;-0.40;99.90
60868;DHT22;46702;48.370;10.794;2023-02-15T00:58:11;-0.50;99.90
60868;DHT22;46702;48.370;10.794;2023-02-15T01:00:38;-0.50;99.90
60868;DHT22;46702;48.370;10.794;2023-02-15T01:03:05;-0.50;99.90
60868;DHT22;46702;48.370;10.794;2023-02-15T01:05:33;-0.60;99.90
60868;DHT22;46702;48.370;10.794;2023-02-15T01:07:59;-0.80;99.90
60868;DHT22;46702;48.370;10.794;2023-02-15T01:10:26;-0.80;99.90
60868;DHT22;46702;48.370;10.794;2023-02-15T01:12:53;-0.90;99.90
60868;DHT22;46702;48.370;10.794;2023-02-15T01:15:19;-0.80;99.90
60868;DHT22;46702;48.370;10.794;2023-02-15T01:17:45;-0.70;99.90
60868;DHT22;46702;48.370;10.794;2023-02-15T01:20:17;-0.70;99.90
60868;DHT22;46702;48.370;10.794;2023-02-15T01:22:43;-0.70;99.90
60868;DHT22;46702;48.370;10.794;2023-02-15T01:25:08;-0.70;99.90
60868;DHT22;46702;48.370;10.794;2023-02-15T01:27:34;-0.80;99.90
60868;DHT22;46702;48.370;10.794;2023-02-15T01:30:00;-0.90;99.90
60868;DHT22;46702;48.370;10.794;2023-02-15T01:32:26;-0.80;99.90
60868;DHT22;46702;48.370;10.794;2023-02-15T01:34:52;-0.70;99.90
60868;DHT22;46702;48.370;10.794;2023-02-15T01:37:18;-0.80;99.90
60868;DHT22;46702;48.370;10.794;2023-02-15T01:39:43;-0.80;99.90
60868;DHT22;46702;48.370;10.794;2023-02-15T01:42:12;-1.10;99.90
60868;DHT22;46702;48.370;10.794;2023-02-15T01:44:53;-1.00;99.90
60868;DHT22;46702;48.370;10.794;2023-02-15T01:47:27;-0.90;99.90
60868;DHT22;46702;48.370;10.794;2023-02-15T01:50:09;-0.80;99.90
60868;DHT22;46702;48.370;10.794;2023-02-15T01:52:39;-0.80;99.90
60868;DHT22;46702;48.370;10.794;2023-02-15T01:55:06;-0.70;99.90
60868;DHT22;46702;48.370;10.794;2023-02-15T01:57:33;-0.70;99.90
60868;DHT22;46702;48.370;10.794;2023-02-15T02:00:01;-0.60;99.90
60868;DHT22;46702;48.370;10.794;2023-02-15T02:02:27;-0.60;99.90
60868;DHT22;46702;48.370;10.794;2023-02-15T02:05:00;-0.60;99.90
60868;DHT22;46702;48.370;10.794;2023-02-15T02:07:34;-0.70;99.90
60868;DHT22;46702;48.370;10.794;2023-02-15T02:10:00;-0.80;99.90
60868;DHT22;46702;48.370;10.794;2023-02-15T02:12:26;-0.80;99.90
60868;DHT22;46702;48.370;10.794;2023-02-15T02:14:53;-0.90;99.90
60868;DHT22;46702;48.370;10.794;2023-02-15T02:20:28;-0.90;99.90
60868;DHT22;46702;48.370;10.794;2023-02-15T02:42:02;-0.90;99.90
60868;DHT22;46702;48.370;10.794;2023-02-15T02:44:43;-1.00;99.90
60868;DHT22;46702;48.370;10.794;2023-02-15T02:47:22;-1.00;99.90
60868;DHT22;46702;48.370;10.794;2023-02-15T02:49:52;-1.10;99.90
60868;DHT22;46702;48.370;10.794;2023-02-15T02:55:25;-1.20;99.90
60868;DHT22;46702;48.370;10.794;2023-02-15T02:58:07;-1.20;99.90
60868;DHT22;46702;48.370;10.794;2023-02-15T03:01:01;-1.20;99.90
60868;DHT22;46702;48.370;10.794;2023-02-15T03:06:00;-1.20;99.90
60868;DHT22;46702;48.370;10.794;2023-02-15T03:08:38;-1.20;99.90
60868;DHT22;46702;48.370;10.794;2023-02-15T03:11:04;-1.20;99.90
60868;DHT22;46702;48.370;10.794;2023-02-15T03:13:31;-1.20;99.90
60868;DHT22;46702;48.370;10.794;2023-02-15T03:15:58;-1.20;99.90
60868;DHT22;46702;48.370;10.794;2023-02-15T03:18:51;-1.10;99.90
60868;DHT22;46702;48.370;10.794;2023-02-15T03:21:27;-1.10;99.90
60868;DHT22;46702;48.370;10.794;2023-02-15T03:24:08;-1.00;99.90
60868;DHT22;46702;48.370;10.794;2023-02-15T03:26:36;-1.00;99.90
60868;DHT22;46702;48.370;10.794;2023-02-15T03:29:05;-1.00;99.90
60868;DHT22;46702;48.370;10.794;2023-02-15T03:31:34;-1.00;99.90
60868;DHT22;46702;48.370;10.794;2023-02-15T03:34:08;-1.00;99.90
60868;DHT22;46702;48.370;10.794;2023-02-15T03:37:10;-1.00;99.90
60868;DHT22;46702;48.370;10.794;2023-02-15T03:39:32;-0.90;99.90
60868;DHT22;46702;48.370;10.794;2023-02-15T03:42:22;-1.00;99.90
60868;DHT22;46702;48.370;10.794;2023-02-15T03:47:32;-0.90;99.90
60868;DHT22;46702;48.370;10.794;2023-02-15T03:50:10;-0.90;99.90
60868;DHT22;46702;48.370;10.794;2023-02-15T03:52:57;-0.90;99.90
60868;DHT22;46702;48.370;10.794;2023-02-15T03:55:24;-0.90;99.90
60868;DHT22;46702;48.370;10.794;2023-02-15T03:57:50;-0.80;99.90
60868;DHT22;46702;48.370;10.794;2023-02-15T04:00:38;-0.90;99.90
60868;DHT22;46702;48.370;10.794;2023-02-15T04:03:36;-0.90;99.90
60868;DHT22;46702;48.370;10.794;2023-02-15T04:06:04;-0.90;99.90
60868;DHT22;46702;48.370;10.794;2023-02-15T04:08:30;-0.90;99.90
60868;DHT22;46702;48.370;10.794;2023-02-15T04:11:15;-0.90;99.90
60868;DHT22;46702;48.370;10.794;2023-02-15T04:13:40;-1.10;99.90
60868;DHT22;46702;48.370;10.794;2023-02-15T04:16:06;-1.10;99.90
60868;DHT22;46702;48.370;10.794;2023-02-15T04:21:19;-1.00;99.90
60868;DHT22;46702;48.370;10.794;2023-02-15T04:24:04;-1.00;99.90
60868;DHT22;46702;48.370;10.794;2023-02-15T04:26:48;-1.10;99.90
60868;DHT22;46702;48.370;10.794;2023-02-15T04:29:15;-1.20;99.90
60868;DHT22;46702;48.370;10.794;2023-02-15T04:31:41;-1.20;99.90
60868;DHT22;46702;48.370;10.794;2023-02-15T04:34:08;-1.30;99.90
60868;DHT22;46702;48.370;10.794;2023-02-15T04:36:33;-1.30;99.90
60868;DHT22;46702;48.370;10.794;2023-02-15T04:38:59;-1.20;99.90
60868;DHT22;46702;48.370;10.794;2023-02-15T04:41:25;-1.20;99.90
60868;DHT22;46702;48.370;10.794;2023-02-15T04:43:50;-1.10;99.90
60868;DHT22;46702;48.370;10.794;2023-02-15T04:46:16;-1.20;99.90
60868;DHT22;46702;48.370;10.794;2023-02-15T04:48:41;-1.30;99.90
60868;DHT22;46702;48.370;10.794;2023-02-15T04:51:07;-1.20;99.90
60868;DHT22;46702;48.370;10.794;2023-02-15T04:53:33;-1.30;99.90
60868;DHT22;46702;48.370;10.794;2023-02-15T04:55:59;-1.30;99.90
60868;DHT22;46702;48.370;10.794;2023-02-15T04:58:24;-1.20;99.90
60868;DHT22;46702;48.370;10.794;2023-02-15T05:00:51;-1.30;99.90
60868;DHT22;46702;48.370;10.794;2023-02-15T05:03:20;-1.30;99.90
60868;DHT22;46702;48.370;10.794;2023-02-15T05:05:47;-1.30;99.90
60868;DHT22;46702;48.370;10.794;2023-02-15T05:08:12;-1.20;99.90
60868;DHT22;46702;48.370;10.794;2023-02-15T05:10:38;-1.20;99.90
60868;DHT22;46702;48.370;10.794;2023-02-15T05:13:04;-1.20;99.90
60868;DHT22;46702;48.370;10.794;2023-02-15T05:15:29;-1.40;99.90
60868;DHT22;46702;48.370;10.794;2023-02-15T05:17:55;-1.30;99.90
60868;DHT22;46702;48.370;10.794;2023-02-15T05:20:20;-1.50;99.90
60868;DHT22;46702;48.370;10.794;2023-02-15T05:22:46;-1.40;99.90
60868;DHT22;46702;48.370;10.794;2023-02-15T05:25:12;-1.30;99.90
60868;DHT22;46702;48.370;10.794;2023-02-15T05:27:56;-1.20;99.90
60868;DHT22;46702;48.370;10.794;2023-02-15T05:30:40;-1.20;99.90
60868;DHT22;46702;48.370;10.794;2023-02-15T05:33:07;-1.10;99.90
60868;DHT22;46702;48.370;10.794;2023-02-15T05:35:33;-1.10;99.90
60868;DHT22;46702;48.370;10.794;2023-02-15T05:37:59;-1.20;99.90
60868;DHT22;46702;48.370;10.794;2023-02-15T05:40:25;-1.30;99.90
60868;DHT22;46702;48.370;10.794;2023-02-15T05:42:50;-1.30;99.90
60868;DHT22;46702;48.370;10.794;2023-02-15T05:45:16;-1.40;99.90
60868;DHT22;46702;48.370;10.794;2023-02-15T05:47:45;-1.40;99.90
60868;DHT22;46702;48.370;10.794;2023-02-15T05:50:11;-1.40;99.90
60868;DHT22;46702;48.370;10.794;2023-02-15T05:52:37;-1.40;99.90
60868;DHT22;46702;48.370;10.794;2023-02-15T05:55:06;-1.30;99.90
60868;DHT22;46702;48.370;10.794;2023-02-15T05:57:34;-1.30;99.90
60868;DHT22;46702;48.370;10.794;2023-02-15T06:00:04;-1.30;99.90
60868;DHT22;46702;48.370;10.794;2023-02-15T06:02:34;-1.30;99.90
60868;DHT22;46702;48.370;10.794;2023-02-15T06:05:00;-1.20;99.90
60868;DHT22;46702;48.370;10.794;2023-02-15T06:07:26;-1.20;99.90
60868;DHT22;46702;48.370;10.794;2023-02-15T06:09:52;-1.20;99.90
60868;DHT22;46702;48.370;10.794;2023-02-15T06:12:18;-1.20;99.90
60868;DHT22;46702;48.370;10.794;2023-02-15T06:14:43;-1.10;99.90
60868;DHT22;46702;48.370;10.794;2023-02-15T06:17:09;-1.20;99.90
60868;DHT22;46702;48.370;10.794;2023-02-15T06:19:34;-1.20;99.90
60868;DHT22;46702;48.370;10.794;2023-02-15T06:22:01;-1.20;99.90
60868;DHT22;46702;48.370;10.794;2023-02-15T06:24:27;-1.30;99.90
60868;DHT22;46702;48.370;10.794;2023-02-15T06:26:53;-1.30;99.90
60868;DHT22;46702;48.370;10.794;2023-02-15T06:29:18;-1.40;99.90
60868;DHT22;46702;48.370;10.794;2023-02-15T06:31:44;-1.30;99.90
60868;DHT22;46702;48.370;10.794;2023-02-15T06:34:10;-1.30;99.90
60868;DHT22;46702;48.370;10.794;2023-02-15T06:36:36;-1.20;99.90
60868;DHT22;46702;48.370;10.794;2023-02-15T06:39:02;-1.30;99.90
60868;DHT22;46702;48.370;10.794;2023-02-15T06:41:28;-1.20;99.90
60868;DHT22;46702;48.370;10.794;2023-02-15T06:43:54;-1.20;99.90
60868;DHT22;46702;48.370;10.794;2023-02-15T06:46:20;-1.20;99.90
60868;DHT22;46702;48.370;10.794;2023-02-15T06:48:45;-1.10;99.90
60868;DHT22;46702;48.370;10.794;2023-02-15T06:51:11;-1.10;99.90
60868;DHT22;46702;48.370;10.794;2023-02-15T06:53:37;-1.10;99.90
60868;DHT22;46702;48.370;10.794;2023-02-15T06:56:07;-1.10;99.90
60868;DHT22;46702;48.370;10.794;2023-02-15T06:58:35;-1.00;99.90
60868;DHT22;46702;48.370;10.794;2023-02-15T07:01:00;-1.00;99.90
60868;DHT22;46702;48.370;10.794;2023-02-15T07:03:26;-1.10;99.90
60868;DHT22;46702;48.370;10.794;2023-02-15T07:05:56;-1.10;99.90
60868;DHT22;46702;48.370;10.794;2023-02-15T07:08:23;-1.10;99.90
60868;DHT22;46702;48.370;10.794;2023-02-15T07:10:49;-1.10;99.90
60868;DHT22;46702;48.370;10.794;2023-02-15T07:13:16;-1.20;99.90
60868;DHT22;46702;48.370;10.794;2023-02-15T07:15:42;-1.10;99.90
60868;DHT22;46702;48.370;10.794;2023-02-15T07:18:07;-1.00;99.90
60868;DHT22;46702;48.370;10.794;2023-02-15T07:20:34;-1.00;99.90
60868;DHT22;46702;48.370;10.794;2023-02-15T07:23:02;-1.20;99.90
60868;DHT22;46702;48.370;10.794;2023-02-15T07:25:28;-1.20;99.90
60868;DHT22;46702;48.370;10.794;2023-02-15T07:27:57;-1.20;99.90
60868;DHT22;46702;48.370;10.794;2023-02-15T07:30:23;-1.10;99.90
60868;DHT22;46702;48.370;10.794;2023-02-15T07:32:49;-1.10;99.90
60868;DHT22;46702;48.370;10.794;2023-02-15T07:35:34;-1.00;99.90
60868;DHT22;46702;48.370;10.794;2023-02-15T07:38:00;-1.00;99.90
60868;DHT22;46702;48.370;10.794;2023-02-15T07:40:26;-1.00;99.90
60868;DHT22;46702;48.370;10.794;2023-02-15T07:42:52;-1.00;99.90
60868;DHT22;46702;48.370;10.794;2023-02-15T07:45:20;-0.90;99.90
60868;DHT22;46702;48.370;10.794;2023-02-15T07:47:47;-1.00;99.90
60868;DHT22;46702;48.370;10.794;2023-02-15T07:50:13;-1.00;99.90
60868;DHT22;46702;48.370;10.794;2023-02-15T07:52:39;-1.10;99.90
60868;DHT22;46702;48.370;10.794;2023-02-15T07:55:05;-1.30;99.90
60868;DHT22;46702;48.370;10.794;2023-02-15T07:57:31;-1.20;99.90
60868;DHT22;46702;48.370;10.794;2023-02-15T07:59:56;-1.00;99.90
60868;DHT22;46702;48.370;10.794;2023-02-15T08:02:22;-1.00;99.90
60868;DHT22;46702;48.370;10.794;2023-02-15T08:04:47;-1.00;99.90
60868;DHT22;46702;48.370;10.794;2023-02-15T08:07:14;-1.10;99.90
60868;DHT22;46702;48.370;10.794;2023-02-15T08:09:40;-1.10;99.90
60868;DHT22;46702;48.370;10.794;2023-02-15T08:12:06;-1.00;99.90
60868;DHT22;46702;48.370;10.794;2023-02-15T08:14:31;-0.90;99.90
60868;DHT22;46702;48.370;10.794;2023-02-15T08:16:59;-1.00;99.90
60868;DHT22;46702;48.370;10.794;2023-02-15T08:19:32;-0.90;99.90
60868;DHT22;46702;48.370;10.794;2023-02-15T08:22:16;-0.90;99.90
60868;DHT22;46702;48.370;10.794;2023-02-15T08:24:41;-1.00;99.90
60868;DHT22;46702;48.370;10.794;2023-02-15T08:27:09;-1.00;99.90
60868;DHT22;46702;48.370;10.794;2023-02-15T08:29:36;-1.00;99.90
60868;DHT22;46702;48.370;10.794;2023-02-15T08:32:05;-0.90;99.90
60868;DHT22;46702;48.370;10.794;2023-02-15T08:34:33;-0.90;99.90
60868;DHT22;46702;48.370;10.794;2023-02-15T08:36:59;-1.00;99.90
60868;DHT22;46702;48.370;10.794;2023-02-15T08:39:26;-0.90;99.90
60868;DHT22;46702;48.370;10.794;2023-02-15T08:41:51;-0.90;99.90
60868;DHT22;46702;48.370;10.794;2023-02-15T08:44:19;-0.90;99.90
60868;DHT22;46702;48.370;10.794;2023-02-15T08:46:45;-1.00;99.90
60868;DHT22;46702;48.370;10.794;2023-02-15T08:49:15;-1.10;99.90
60868;DHT22;46702;48.370;10.794;2023-02-15T08:51:41;-1.10;99.90
60868;DHT22;46702;48.370;10.794;2023-02-15T08:54:08;-1.20;99.90
60868;DHT22;46702;48.370;10.794;2023-02-15T08:56:37;-1.10;99.90
60868;DHT22;46702;48.370;10.794;2023-02-15T08:59:03;-1.10;99.90
60868;DHT22;46702;48.370;10.794;2023-02-15T09:01:31;-1.00;99.90
60868;DHT22;46702;48.370;10.794;2023-02-15T09:04:02;-1.00;99.90
60868;DHT22;46702;48.370;10.794;2023-02-15T09:06:29;-0.90;99.90
60868;DHT22;46702;48.370;10.794;2023-02-15T09:08:55;-0.80;99.90
60868;DHT22;46702;48.370;10.794;2023-02-15T09:11:24;-0.80;99.90
60868;DHT22;46702;48.370;10.794;2023-02-15T09:16:22;-0.80;99.90
60868;DHT22;46702;48.370;10.794;2023-02-15T09:18:48;-0.70;99.90
60868;DHT22;46702;48.370;10.794;2023-02-15T09:21:21;-0.70;99.90
60868;DHT22;46702;48.370;10.794;2023-02-15T09:23:49;-0.70;99.90
60868;DHT22;46702;48.370;10.794;2023-02-15T09:26:17;-0.70;99.90
60868;DHT22;46702;48.370;10.794;2023-02-15T09:28:43;-0.60;99.90
60868;DHT22;46702;48.370;10.794;2023-02-15T09:33:41;-0.30;99.90
60868;DHT22;46702;48.370;10.794;2023-02-15T09:36:21;-0.20;99.90
60868;DHT22;46702;48.370;10.794;2023-02-15T09:38:52;-0.10;99.90
60868;DHT22;46702;48.370;10.794;2023-02-15T09:44:22;-0.20;99.90
60868;DHT22;46702;48.370;10.794;2023-02-15T10:07:14;0.50;99.90
60868;DHT22;46702;48.370;10.794;2023-02-15T10:09:28;0.40;99.90
60868;DHT22;46702;48.370;10.794;2023-02-15T10:12:29;0.20;99.90
60868;DHT22;46702;48.370;10.794;2023-02-15T10:21:01;0.60;99.90
60868;DHT22;46702;48.370;10.794;2023-02-15T10:26:01;0.80;99.90
60868;DHT22;46702;48.370;10.794;2023-02-15T10:28:53;1.00;99.90
60868;DHT22;46702;48.370;10.794;2023-02-15T10:34:23;1.40;99.90
60868;DHT22;46702;48.370;10.794;2023-02-15T10:37:22;1.70;99.90
60868;DHT22;46702;48.370;10.794;2023-02-15T10:43:19;1.70;99.90
60868;DHT22;46702;48.370;10.794;2023-02-15T10:48:55;1.50;99.90
60868;DHT22;46702;48.370;10.794;2023-02-15T10:51:43;1.60;99.90
60868;DHT22;46702;48.370;10.794;2023-02-15T10:59:56;1.70;99.90
60868;DHT22;46702;48.370;10.794;2023-02-15T11:06:13;1.90;99.90
60868;DHT22;46702;48.370;10.794;2023-02-15T11:08:47;2.10;99.90
60868;DHT22;46702;48.370;10.794;2023-02-15T11:11:27;2.20;99.90
60868;DHT22;46702;48.370;10.794;2023-02-15T11:16:43;2.00;99.90
60868;DHT22;46702;48.370;10.794;2023-02-15T11:19:32;2.10;99.90
60868;DHT22;46702;48.370;10.794;2023-02-15T11:22:04;2.00;99.90
60868;DHT22;46702;48.370;10.794;2023-02-15T11:24:32;2.10;99.90
60868;DHT22;46702;48.370;10.794;2023-02-15T11:27:12;2.10;99.90
60868;DHT22;46702;48.370;10.794;2023-02-15T11:32:23;2.10;99.90
60868;DHT22;46702;48.370;10.794;2023-02-15T11:37:32;2.10;99.90
60868;DHT22;46702;48.370;10.794;2023-02-15T11:40:00;2.20;99.90
60868;DHT22;46702;48.370;10.794;2023-02-15T11:42:30;2.30;99.90
60868;DHT22;46702;48.370;10.794;2023-02-15T11:45:28;2.20;99.90
60868;DHT22;46702;48.370;10.794;2023-02-15T11:47:56;2.30;99.90
60868;DHT22;46702;48.370;10.794;2023-02-15T11:50:28;2.40;99.90
60868;DHT22;46702;48.370;10.794;2023-02-15T11:53:17;2.40;99.90
60868;DHT22;46702;48.370;10.794;2023-02-15T11:55:45;2.50;99.90
60868;DHT22;46702;48.370;10.794;2023-02-15T11:58:16;2.50;99.90
60868;DHT22;46702;48.370;10.794;2023-02-15T12:00:49;2.60;99.90
60868;DHT22;46702;48.370;10.794;2023-02-15T12:03:22;2.80;99.90
60868;DHT22;46702;48.370;10.794;2023-02-15T12:06:01;3.00;99.90
60868;DHT22;46702;48.370;10.794;2023-02-15T12:08:40;3.10;99.90
60868;DHT22;46702;48.370;10.794;2023-02-15T12:11:28;3.10;99.90
60868;DHT22;46702;48.370;10.794;2023-02-15T12:14:03;3.10;99.90
60868;DHT22;46702;48.370;10.794;2023-02-15T12:16:43;3.30;99.90
60868;DHT22;46702;48.370;10.794;2023-02-15T12:19:36;3.40;99.90
60868;DHT22;46702;48.370;10.794;2023-02-15T12:22:04;3.50;99.90
60868;DHT22;46702;48.370;10.794;2023-02-15T12:24:37;3.80;99.90
60868;DHT22;46702;48.370;10.794;2023-02-15T12:27:19;3.90;99.90
60868;DHT22;46702;48.370;10.794;2023-02-15T12:29:57;4.00;99.90
60868;DHT22;46702;48.370;10.794;2023-02-15T12:32:49;4.00;99.90
60868;DHT22;46702;48.370;10.794;2023-02-15T12:37:56;4.10;99.90
60868;DHT22;46702;48.370;10.794;2023-02-15T12:40:25;4.20;99.90
60868;DHT22;46702;48.370;10.794;2023-02-15T12:42:53;4.30;99.90
60868;DHT22;46702;48.370;10.794;2023-02-15T12:45:26;4.30;99.90
60868;DHT22;46702;48.370;10.794;2023-02-15T12:48:17;4.30;99.90
60868;DHT22;46702;48.370;10.794;2023-02-15T12:50:50;4.40;99.90
60868;DHT22;46702;48.370;10.794;2023-02-15T12:53:25;4.50;99.90
60868;DHT22;46702;48.370;10.794;2023-02-15T12:55:57;4.50;99.90
60868;DHT22;46702;48.370;10.794;2023-02-15T12:58:25;4.70;99.90
60868;DHT22;46702;48.370;10.794;2023-02-15T13:01:12;4.90;99.90
60868;DHT22;46702;48.370;10.794;2023-02-15T13:04:05;4.80;99.90
60868;DHT22;46702;48.370;10.794;2023-02-15T13:06:34;5.00;99.90
60868;DHT22;46702;48.370;10.794;2023-02-15T13:09:15;5.00;99.90
60868;DHT22;46702;48.370;10.794;2023-02-15T13:11:42;5.20;99.90
60868;DHT22;46702;48.370;10.794;2023-02-15T13:14:22;5.20;99.90
60868;DHT22;46702;48.370;10.794;2023-02-15T13:16:53;5.30;99.90
60868;DHT22;46702;48.370;10.794;2023-02-15T13:19:39;5.40;99.90
60868;DHT22;46702;48.370;10.794;2023-02-15T13:22:10;5.40;99.90
60868;DHT22;46702;48.370;10.794;2023-02-15T13:24:40;5.50;99.90
60868;DHT22;46702;48.370;10.794;2023-02-15T13:27:15;5.50;99.90
60868;DHT22;46702;48.370;10.794;2023-02-15T13:29:43;5.60;99.90
60868;DHT22;46702;48.370;10.794;2023-02-15T13:32:27;5.80;99.90
60868;DHT22;46702;48.370;10.794;2023-02-15T13:34:57;5.80;99.90
60868;DHT22;46702;48.370;10.794;2023-02-15T13:39:59;6.10;99.90
60868;DHT22;46702;48.370;10.794;2023-02-15T13:42:41;6.30;99.90
60868;DHT22;46702;48.370;10.794;2023-02-15T13:53:25;6.50;99.90
60868;DHT22;46702;48.370;10.794;2023-02-15T14:20:58;6.80;99.90
60868;DHT22;46702;48.370;10.794;2023-02-15T14:29:10;6.70;99.90
60868;DHT22;46702;48.370;10.794;2023-02-15T14:31:42;6.70;99.90
60868;DHT22;46702;48.370;10.794;2023-02-15T14:34:48;6.70;99.90
60868;DHT22;46702;48.370;10.794;2023-02-15T14:37:21;6.70;99.90
60868;DHT22;46702;48.370;10.794;2023-02-15T14:40:31;6.70;99.90
60868;DHT22;46702;48.370;10.794;2023-02-15T14:43:27;6.70;99.90
60868;DHT22;46702;48.370;10.794;2023-02-15T14:46:05;6.60;99.90
60868;DHT22;46702;48.370;10.794;2023-02-15T14:48:50;6.60;99.90
60868;DHT22;46702;48.370;10.794;2023-02-15T14:56:46;6.50;99.90
60868;DHT22;46702;48.370;10.794;2023-02-15T14:59:14;6.40;99.90
60868;DHT22;46702;48.370;10.794;2023-02-15T15:01:41;6.40;99.90
60868;DHT22;46702;48.370;10.794;2023-02-15T15:04:43;6.30;99.90
60868;DHT22;46702;48.370;10.794;2023-02-15T15:07:28;6.20;99.90
60868;DHT22;46702;48.370;10.794;2023-02-15T15:14:57;6.00;99.90
60868;DHT22;46702;48.370;10.794;2023-02-15T15:20:04;5.80;99.90
60868;DHT22;46702;48.370;10.794;2023-02-15T15:22:34;5.80;99.90
60868;DHT22;46702;48.370;10.794;2023-02-15T15:25:04;5.70;99.90
60868;DHT22;46702;48.370;10.794;2023-02-15T15:33:11;5.40;99.90
60868;DHT22;46702;48.370;10.794;2023-02-15T15:39:12;5.20;99.90
60868;DHT22;46702;48.370;10.794;2023-02-15T15:42:01;5.10;99.90
60868;DHT22;46702;48.370;10.794;2023-02-15T15:47:17;5.00;99.90
60868;DHT22;46702;48.370;10.794;2023-02-15T15:49:46;4.90;99.90
60868;DHT22;46702;48.370;10.794;2023-02-15T15:52:15;4.80;99.90
60868;DHT22;46702;48.370;10.794;2023-02-15T15:54:42;4.80;99.90
60868;DHT22;46702;48.370;10.794;2023-02-15T15:57:38;4.70;99.90
60868;DHT22;46702;48.370;10.794;2023-02-15T16:03:02;4.60;99.90
60868;DHT22;46702;48.370;10.794;2023-02-15T16:05:35;4.50;99.90
60868;DHT22;46702;48.370;10.794;2023-02-15T16:08:01;4.50;99.90
60868;DHT22;46702;48.370;10.794;2023-02-15T16:10:28;4.40;99.90
60868;DHT22;46702;48.370;10.794;2023-02-15T16:12:55;4.30;99.90
60868;DHT22;46702;48.370;10.794;2023-02-15T16:15:24;4.20;99.90
60868;DHT22;46702;48.370;10.794;2023-02-15T16:17:55;4.10;99.90
60868;DHT22;46702;48.370;10.794;2023-02-15T16:20:27;4.10;99.90
60868;DHT22;46702;48.370;10.794;2023-02-15T16:28:35;3.70;99.90
60868;DHT22;46702;48.370;10.794;2023-02-15T16:33:37;3.60;99.90
60868;DHT22;46702;48.370;10.794;2023-02-15T16:36:04;3.40;99.90
60868;DHT22;46702;48.370;10.794;2023-02-15T16:41:08;3.30;99.90
60868;DHT22;46702;48.370;10.794;2023-02-15T16:43:37;3.20;99.90
60868;DHT22;46702;48.370;10.794;2023-02-15T16:46:06;3.10;99.90
60868;DHT22;46702;48.370;10.794;2023-02-15T16:48:33;3.00;99.90
60868;DHT22;46702;48.370;10.794;2023-02-15T16:51:01;2.90;99.90
60868;DHT22;46702;48.370;10.794;2023-02-15T16:53:27;2.80;99.90
60868;DHT22;46702;48.370;10.794;2023-02-15T16:55:56;2.90;99.90
60868;DHT22;46702;48.370;10.794;2023-02-15T16:58:38;3.00;99.90
60868;DHT22;46702;48.370;10.794;2023-02-15T17:01:08;3.00;99.90
60868;DHT22;46702;48.370;10.794;2023-02-15T17:03:35;3.00;99.90
60868;DHT22;46702;48.370;10.794;2023-02-15T17:06:02;2.90;99.90
60868;DHT22;46702;48.370;10.794;2023-02-15T17:08:33;2.90;99.90
60868;DHT22;46702;48.370;10.794;2023-02-15T17:13:26;2.90;99.90
60868;DHT22;46702;48.370;10.794;2023-02-15T17:18:32;2.70;99.90
60868;DHT22;46702;48.370;10.794;2023-02-15T17:21:01;2.60;99.90
60868;DHT22;46702;48.370;10.794;2023-02-15T17:23:42;2.50;99.90
60868;DHT22;46702;48.370;10.794;2023-02-15T17:26:18;2.30;99.90
60868;DHT22;46702;48.370;10.794;2023-02-15T17:28:51;2.30;99.90
60868;DHT22;46702;48.370;10.794;2023-02-15T17:31:19;2.40;99.90
60868;DHT22;46702;48.370;10.794;2023-02-15T17:33:45;2.50;99.90
60868;DHT22;46702;48.370;10.794;2023-02-15T17:36:16;2.40;99.90
60868;DHT22;46702;48.370;10.794;2023-02-15T17:41:29;2.20;99.90
60868;DHT22;46702;48.370;10.794;2023-02-15T17:43:55;2.20;99.90
60868;DHT22;46702;48.370;10.794;2023-02-15T17:46:22;2.20;99.90
60868;DHT22;46702;48.370;10.794;2023-02-15T17:48:50;2.10;99.90
60868;DHT22;46702;48.370;10.794;2023-02-15T17:51:16;2.10;99.90
60868;DHT22;46702;48.370;10.794;2023-02-15T17:53:42;2.10;99.90
60868;DHT22;46702;48.370;10.794;2023-02-15T17:56:35;2.00;99.90
60868;DHT22;46702;48.370;10.794;2023-02-15T17:59:01;2.10;99.90
60868;DHT22;46702;48.370;10.794;2023-02-15T18:01:26;2.10;99.90
60868;DHT22;46702;48.370;10.794;2023-02-15T18:04:14;1.90;99.90
60868;DHT22;46702;48.370;10.794;2023-02-15T18:06:59;1.90;99.90
60868;DHT22;46702;48.370;10.794;2023-02-15T18:09:43;1.90;99.90
60868;DHT22;46702;48.370;10.794;2023-02-15T18:12:33;1.70;99.90
60868;DHT22;46702;48.370;10.794;2023-02-15T18:15:00;1.70;99.90
60868;DHT22;46702;48.370;10.794;2023-02-15T18:17:28;1.60;99.90
60868;DHT22;46702;48.370;10.794;2023-02-15T18:19:54;1.70;99.90
60868;DHT22;46702;48.370;10.794;2023-02-15T18:22:20;1.70;99.90
60868;DHT22;46702;48.370;10.794;2023-02-15T18:24:47;1.80;99.90
60868;DHT22;46702;48.370;10.794;2023-02-15T18:27:14;1.70;99.90
60868;DHT22;46702;48.370;10.794;2023-02-15T18:29:41;1.70;99.90
60868;DHT22;46702;48.370;10.794;2023-02-15T18:32:12;1.80;99.90
60868;DHT22;46702;48.370;10.794;2023-02-15T18:34:40;1.80;99.90
60868;DHT22;46702;48.370;10.794;2023-02-15T18:37:15;1.90;99.90
60868;DHT22;46702;48.370;10.794;2023-02-15T18:39:46;1.80;99.90
60868;DHT22;46702;48.370;10.794;2023-02-15T18:42:23;1.70;99.90
60868;DHT22;46702;48.370;10.794;2023-02-15T18:44:54;1.70;99.90
60868;DHT22;46702;48.370;10.794;2023-02-15T18:47:20;1.70;99.90
60868;DHT22;46702;48.370;10.794;2023-02-15T18:49:45;1.70;99.90
60868;DHT22;46702;48.370;10.794;2023-02-15T18:52:20;1.80;99.90
60868;DHT22;46702;48.370;10.794;2023-02-15T18:54:48;1.70;99.90
60868;DHT22;46702;48.370;10.794;2023-02-15T18:57:15;1.60;99.90